Time;durP1;ratioP1;P1;durP2;ratioP2;P2;SDS_P1;SDS_P2;PMS_P1;PMS_P2;Temp;Humidity;BMP_temperature;BMP_pressure;BME280_temperature;BME280_humidity;BME280_pressure;Samples;Min_cycle;Max_cycle;Signal;HPM_P1;HPM_P2
2021/01/10 00:02:25;;;;;;;46.15;26.60;;;7.30;99.90;;;;;;4993899;28;20200;-80
2021/01/10 00:04:51;;;;;;;45.45;26.27;;;7.30;99.90;;;;;;4993918;28;20201;-79
2021/01/10 00:07:23;;;;;;;46.70;25.88;;;7.30;99.90;;;;;;4993781;28;20251;-80
2021/01/10 00:09:49;;;;;;;44.97;25.25;;;7.40;99.90;;;;;;4993828;28;20208;-79
2021/01/10 00:12:20;;;;;;;51.90;25.88;;;7.40;99.90;;;;;;4993933;28;20587;-86
2021/01/10 00:14:46;;;;;;;42.28;24.45;;;7.40;99.90;;;;;;4993598;28;20220;-87
2021/01/10 00:17:13;;;;;;;36.60;22.05;;;7.30;99.90;;;;;;4993684;28;20197;-80
2021/01/10 00:19:39;;;;;;;43.97;23.60;;;7.20;99.90;;;;;;4993665;28;20200;-79
2021/01/10 00:22:09;;;;;;;44.00;23.58;;;7.20;99.90;;;;;;4993808;28;20208;-79
2021/01/10 00:24:36;;;;;;;37.95;24.10;;;7.10;99.90;;;;;;4993663;28;20208;-79
2021/01/10 00:27:02;;;;;;;47.38;23.42;;;7.10;99.90;;;;;;4993660;28;20224;-80
2021/01/10 00:29:29;;;;;;;45.47;25.25;;;7.10;99.90;;;;;;4993774;28;20197;-79
2021/01/10 00:31:55;;;;;;;47.00;27.20;;;7.10;99.90;;;;;;4993645;28;20664;-84
2021/01/10 00:34:21;;;;;;;42.33;25.38;;;7.20;99.90;;;;;;4993497;28;20207;-80
2021/01/10 00:36:47;;;;;;;43.88;24.80;;;7.10;99.90;;;;;;4993467;28;20212;-80
2021/01/10 00:39:14;;;;;;;38.15;23.17;;;7.10;99.90;;;;;;4993393;28;20212;-80
2021/01/10 00:41:41;;;;;;;37.08;21.73;;;7.00;99.90;;;;;;4993693;28;20193;-80
2021/01/10 00:44:07;;;;;;;36.95;21.35;;;6.90;99.90;;;;;;4993561;28;20205;-84
2021/01/10 00:46:34;;;;;;;44.35;23.85;;;7.00;99.90;;;;;;4993075;28;20236;-79
2021/01/10 00:49:00;;;;;;;44.85;25.88;;;7.00;99.90;;;;;;4993329;28;20203;-80
2021/01/10 00:51:26;;;;;;;44.28;25.50;;;7.00;99.90;;;;;;4993618;28;20203;-80
2021/01/10 00:53:52;;;;;;;50.72;24.70;;;7.00;99.90;;;;;;4993385;28;20201;-88
2021/01/10 00:56:19;;;;;;;49.47;25.85;;;7.10;99.90;;;;;;4993535;28;20205;-80
2021/01/10 00:58:46;;;;;;;59.78;26.55;;;7.10;99.90;;;;;;4993366;28;20203;-79
2021/01/10 01:01:12;;;;;;;44.75;25.17;;;7.10;99.90;;;;;;4993410;28;20667;-80
2021/01/10 01:03:38;;;;;;;47.53;25.80;;;7.10;99.90;;;;;;4995033;28;20203;-80
2021/01/10 01:06:10;;;;;;;47.63;25.98;;;7.10;99.90;;;;;;4997045;28;20204;-88
2021/01/10 01:08:36;;;;;;;46.80;24.58;;;7.10;99.90;;;;;;4996834;28;20309;-80
2021/01/10 01:11:02;;;;;;;56.30;30.17;;;7.20;99.90;;;;;;4996871;28;20223;-79
2021/01/10 01:13:29;;;;;;;44.97;26.33;;;7.20;99.90;;;;;;4996934;28;20231;-79
2021/01/10 01:15:56;;;;;;;54.97;27.02;;;7.10;99.90;;;;;;4996642;28;20224;-81
2021/01/10 01:18:22;;;;;;;50.75;25.02;;;7.10;99.90;;;;;;4996603;28;20219;-79
2021/01/10 01:20:50;;;;;;;45.88;25.85;;;7.10;99.90;;;;;;4996798;28;20201;-80
2021/01/10 01:23:16;;;;;;;47.92;23.05;;;7.00;99.90;;;;;;4996595;28;20558;-79
2021/01/10 01:25:44;;;;;;;52.80;27.25;;;7.20;99.90;;;;;;4996824;28;20208;-79
2021/01/10 01:28:10;;;;;;;42.20;25.60;;;7.30;99.90;;;;;;4996608;28;20221;-80
2021/01/10 01:30:36;;;;;;;45.65;25.27;;;7.30;99.90;;;;;;4996634;28;20557;-81
2021/01/10 01:33:03;;;;;;;46.35;25.05;;;7.20;99.90;;;;;;4996676;28;20645;-87
2021/01/10 01:35:31;;;;;;;44.95;25.60;;;7.20;99.90;;;;;;4996683;28;20197;-80
2021/01/10 01:37:57;;;;;;;47.85;23.58;;;7.20;99.90;;;;;;4996456;28;20201;-79
2021/01/10 01:40:24;;;;;;;49.47;26.55;;;7.20;99.90;;;;;;4996297;28;20558;-79
2021/01/10 01:42:50;;;;;;;47.65;23.77;;;7.10;99.90;;;;;;4996373;28;20258;-87
2021/01/10 01:45:16;;;;;;;44.28;21.98;;;7.10;99.90;;;;;;4996051;28;20731;-84
2021/01/10 01:47:43;;;;;;;41.75;23.65;;;7.10;99.90;;;;;;4996442;28;20279;-79
2021/01/10 01:50:11;;;;;;;47.30;25.42;;;7.10;99.90;;;;;;4996442;28;20197;-79
2021/01/10 01:52:40;;;;;;;49.17;24.48;;;7.20;99.90;;;;;;4996292;28;20193;-79
2021/01/10 01:55:07;;;;;;;47.53;24.17;;;7.30;99.90;;;;;;4995969;28;20688;-79
2021/01/10 01:57:33;;;;;;;43.15;23.42;;;7.20;99.90;;;;;;4996219;28;20205;-82
2021/01/10 02:00:00;;;;;;;41.53;22.40;;;7.30;99.90;;;;;;4996200;28;20554;-79
2021/01/10 02:02:26;;;;;;;47.78;24.70;;;7.30;99.90;;;;;;4996065;28;20584;-79
2021/01/10 02:04:59;;;;;;;49.92;24.67;;;7.20;99.90;;;;;;4995760;28;20656;-79
2021/01/10 02:07:31;;;;;;;48.47;26.27;;;7.20;99.90;;;;;;4995871;28;20229;-88
2021/01/10 02:10:05;;;;;;;52.25;25.15;;;7.20;99.90;;;;;;4996077;28;20236;-79
2021/01/10 02:12:35;;;;;;;46.90;26.35;;;7.10;99.90;;;;;;4995918;28;20247;-80
2021/01/10 02:15:07;;;;;;;39.30;24.13;;;7.20;99.90;;;;;;4994882;28;20224;-79
2021/01/10 02:17:34;;;;;;;53.20;25.70;;;7.20;99.90;;;;;;4995918;28;20641;-82
2021/01/10 02:20:07;;;;;;;46.20;26.15;;;7.20;99.90;;;;;;4995761;28;20204;-81
2021/01/10 02:22:43;;;;;;;40.58;23.48;;;7.20;99.90;;;;;;4995562;28;20210;-79
2021/01/10 02:25:12;;;;;;;43.28;23.88;;;7.30;99.90;;;;;;4995691;28;20243;-79
2021/01/10 02:27:40;;;;;;;49.83;25.90;;;7.30;99.90;;;;;;4995405;28;20236;-79
2021/01/10 02:30:09;;;;;;;39.70;23.13;;;7.30;99.90;;;;;;4995350;28;20251;-79
2021/01/10 02:32:36;;;;;;;44.90;24.83;;;7.30;99.90;;;;;;4995472;28;20299;-79
2021/01/10 02:35:05;;;;;;;41.60;23.85;;;7.30;99.90;;;;;;4995162;28;20204;-79
2021/01/10 02:37:49;;;;;;;42.13;23.83;;;7.30;99.90;;;;;;4995338;28;20193;-79
2021/01/10 02:40:23;;;;;;;44.15;23.38;;;7.30;99.90;;;;;;4995378;28;20223;-80
2021/01/10 02:42:56;;;;;;;41.72;25.13;;;7.30;99.90;;;;;;4995209;28;20200;-86
2021/01/10 02:45:24;;;;;;;40.88;23.27;;;7.30;99.90;;;;;;4994847;28;20335;-79
2021/01/10 02:47:50;;;;;;;40.60;22.48;;;7.30;99.90;;;;;;4995007;28;20229;-80
2021/01/10 02:50:17;;;;;;;45.28;23.40;;;7.30;99.90;;;;;;4995313;28;20197;-79
2021/01/10 02:52:46;;;;;;;44.40;22.45;;;7.20;99.90;;;;;;4995083;28;20249;-80
2021/01/10 02:55:13;;;;;;;42.67;23.63;;;7.20;99.90;;;;;;4994851;28;20197;-80
2021/01/10 02:57:43;;;;;;;40.95;22.52;;;7.20;99.90;;;;;;4994978;28;20675;-80
2021/01/10 03:00:11;;;;;;;41.05;22.75;;;7.20;99.90;;;;;;4994995;28;20212;-80
2021/01/10 03:02:38;;;;;;;46.22;24.10;;;7.20;99.90;;;;;;4995079;28;20198;-79
2021/01/10 03:05:05;;;;;;;40.30;21.35;;;7.20;99.90;;;;;;4994843;28;20203;-80
2021/01/10 03:07:32;;;;;;;39.22;22.85;;;7.20;99.90;;;;;;4994766;28;20235;-80
2021/01/10 03:09:59;;;;;;;38.85;21.90;;;7.20;99.90;;;;;;4994776;28;20244;-79
2021/01/10 03:12:25;;;;;;;45.22;21.92;;;7.20;99.90;;;;;;4994741;28;20555;-87
2021/01/10 03:14:53;;;;;;;40.22;21.73;;;7.20;99.90;;;;;;4994508;28;20227;-79
2021/01/10 03:17:28;;;;;;;45.42;22.27;;;7.10;99.90;;;;;;4994693;28;20197;-79
2021/01/10 03:19:54;;;;;;;41.85;23.60;;;7.10;99.90;;;;;;4994467;28;20200;-80
2021/01/10 03:22:21;;;;;;;40.08;20.70;;;7.10;99.90;;;;;;4994427;28;20670;-80
2021/01/10 03:24:47;;;;;;;37.15;19.38;;;7.10;99.90;;;;;;4994651;28;20272;-79
2021/01/10 03:27:13;;;;;;;36.78;20.45;;;7.10;99.90;;;;;;4994112;28;20306;-79
2021/01/10 03:29:39;;;;;;;36.90;20.65;;;7.20;99.90;;;;;;4994434;28;20197;-79
2021/01/10 03:32:07;;;;;;;44.53;21.10;;;7.20;99.90;;;;;;4994248;28;20220;-79
2021/01/10 03:34:33;;;;;;;37.08;20.52;;;7.20;99.90;;;;;;4994224;28;20196;-79
2021/01/10 03:37:00;;;;;;;39.97;19.98;;;7.20;99.90;;;;;;4994224;28;20676;-79
2021/01/10 03:39:26;;;;;;;34.85;19.55;;;7.20;99.90;;;;;;4994228;28;20209;-79
2021/01/10 03:41:52;;;;;;;29.02;17.98;;;7.20;99.90;;;;;;4994123;28;20197;-79
2021/01/10 03:44:18;;;;;;;30.08;18.73;;;7.20;99.90;;;;;;4994069;28;20208;-79
2021/01/10 03:46:45;;;;;;;32.33;20.17;;;7.20;99.90;;;;;;4993865;28;20565;-79
2021/01/10 03:49:12;;;;;;;33.55;17.88;;;7.20;99.90;;;;;;4994071;28;20205;-79
2021/01/10 03:51:38;;;;;;;33.03;18.77;;;7.20;99.90;;;;;;4993865;28;20193;-80
2021/01/10 03:54:05;;;;;;;32.15;19.15;;;7.20;99.90;;;;;;4994122;28;20254;-80
2021/01/10 03:56:32;;;;;;;28.73;17.60;;;7.10;99.90;;;;;;4994314;28;20201;-79
2021/01/10 03:58:58;;;;;;;31.38;18.75;;;7.20;99.90;;;;;;4993966;28;20259;-79
2021/01/10 04:01:24;;;;;;;31.05;19.25;;;7.20;99.90;;;;;;4993851;28;20201;-80
2021/01/10 04:03:51;;;;;;;35.42;17.02;;;7.10;99.90;;;;;;4994026;28;20197;-87
2021/01/10 04:06:18;;;;;;;38.17;19.33;;;7.10;99.90;;;;;;4993940;28;20690;-79
2021/01/10 04:08:46;;;;;;;27.08;16.65;;;7.20;99.90;;;;;;4993812;28;20295;-79
2021/01/10 04:11:13;;;;;;;31.38;17.70;;;7.10;99.90;;;;;;4994057;28;20204;-80
2021/01/10 04:13:39;;;;;;;34.42;17.55;;;7.20;99.90;;;;;;4993782;28;20220;-80
2021/01/10 04:16:06;;;;;;;34.08;19.40;;;7.20;99.90;;;;;;4993783;28;20555;-79
2021/01/10 04:18:32;;;;;;;36.42;19.27;;;7.10;99.90;;;;;;4993616;28;20604;-79
2021/01/10 04:20:58;;;;;;;37.75;17.27;;;7.10;99.90;;;;;;4993906;28;20193;-79
2021/01/10 04:23:26;;;;;;;28.65;16.58;;;7.20;99.90;;;;;;4993634;28;20656;-79
2021/01/10 04:25:52;;;;;;;29.63;17.92;;;7.10;99.90;;;;;;4993774;28;20201;-80
2021/01/10 04:28:18;;;;;;;35.25;19.17;;;7.10;99.90;;;;;;4993639;28;20221;-80
2021/01/10 04:30:44;;;;;;;30.20;17.92;;;7.10;99.90;;;;;;4993549;28;20587;-80
2021/01/10 04:33:11;;;;;;;28.98;16.85;;;7.10;99.90;;;;;;4993603;28;20197;-80
2021/01/10 04:35:37;;;;;;;34.97;18.13;;;7.20;99.90;;;;;;4993537;28;20196;-79
2021/01/10 04:38:03;;;;;;;29.77;16.80;;;7.10;99.90;;;;;;4994471;28;20215;-80
2021/01/10 04:40:31;;;;;;;25.95;16.55;;;7.10;99.90;;;;;;4997569;28;20201;-79
2021/01/10 04:42:57;;;;;;;32.97;16.80;;;7.00;99.90;;;;;;4997370;28;20208;-80
2021/01/10 04:45:24;;;;;;;29.65;16.77;;;7.10;99.90;;;;;;4997026;28;20236;-79
2021/01/10 04:47:51;;;;;;;30.77;18.08;;;7.10;99.90;;;;;;4997277;28;20696;-80
2021/01/10 04:50:18;;;;;;;33.75;18.25;;;7.10;99.90;;;;;;4997377;28;20196;-80
2021/01/10 04:52:45;;;;;;;31.17;17.73;;;7.10;99.90;;;;;;4997266;28;20589;-80
2021/01/10 04:55:13;;;;;;;33.30;18.75;;;7.10;99.90;;;;;;4997285;28;20197;-88
2021/01/10 04:57:41;;;;;;;26.17;15.55;;;7.10;99.90;;;;;;4997144;28;20197;-79
2021/01/10 05:00:10;;;;;;;33.90;18.95;;;7.10;99.90;;;;;;4997331;28;20664;-87
2021/01/10 05:02:45;;;;;;;27.42;16.25;;;7.10;99.90;;;;;;4997221;28;20510;-80
2021/01/10 05:05:12;;;;;;;33.20;15.77;;;7.10;99.90;;;;;;4996954;28;20197;-79
2021/01/10 05:07:39;;;;;;;29.52;16.35;;;7.10;99.90;;;;;;4996773;28;20287;-79
2021/01/10 05:10:06;;;;;;;23.45;15.75;;;7.10;99.90;;;;;;4997029;28;20649;-79
2021/01/10 05:12:32;;;;;;;24.90;16.02;;;7.00;99.90;;;;;;4997111;28;20251;-79
2021/01/10 05:14:59;;;;;;;29.83;16.40;;;7.10;99.90;;;;;;4996547;28;20224;-80
2021/01/10 05:17:26;;;;;;;24.13;14.85;;;7.00;99.90;;;;;;4996912;28;20234;-79
2021/01/10 05:19:52;;;;;;;27.52;16.08;;;7.10;99.90;;;;;;4997020;28;20200;-80
2021/01/10 05:22:20;;;;;;;23.38;15.20;;;7.00;99.90;;;;;;4996705;28;20197;-80
2021/01/10 05:24:47;;;;;;;23.70;15.68;;;6.90;99.90;;;;;;4996708;28;20663;-79
2021/01/10 05:27:13;;;;;;;20.70;15.10;;;6.90;99.90;;;;;;4996469;28;20225;-80
2021/01/10 05:29:43;;;;;;;26.83;15.27;;;6.90;99.90;;;;;;4996582;28;20578;-80
2021/01/10 05:32:11;;;;;;;21.55;15.32;;;7.00;99.90;;;;;;4996613;28;20201;-80
2021/01/10 05:34:37;;;;;;;26.35;16.40;;;6.90;99.90;;;;;;4996470;28;20208;-79
2021/01/10 05:37:14;;;;;;;29.20;17.40;;;6.90;99.90;;;;;;4996450;28;20197;-81
2021/01/10 05:39:45;;;;;;;28.45;15.23;;;6.90;99.90;;;;;;4996407;28;20205;-80
2021/01/10 05:42:12;;;;;;;27.55;14.95;;;6.80;99.90;;;;;;4996509;28;20193;-79
2021/01/10 05:44:49;;;;;;;22.13;14.85;;;6.80;99.90;;;;;;4996224;28;20696;-80
2021/01/10 05:47:18;;;;;;;27.95;16.88;;;6.80;99.90;;;;;;4996358;28;20629;-79
2021/01/10 05:49:46;;;;;;;34.30;15.23;;;6.80;99.90;;;;;;4994996;28;20197;-79
2021/01/10 05:52:13;;;;;;;27.95;16.42;;;6.80;99.90;;;;;;4996235;28;20197;-79
2021/01/10 05:54:40;;;;;;;28.25;15.35;;;6.80;99.90;;;;;;4996201;28;20205;-79
2021/01/10 05:57:08;;;;;;;29.55;16.42;;;6.90;99.90;;;;;;4996242;28;20217;-89
2021/01/10 05:59:36;;;;;;;25.92;15.35;;;6.90;99.90;;;;;;4996118;28;20204;-88
2021/01/10 06:02:04;;;;;;;24.00;14.88;;;6.80;99.90;;;;;;4996137;28;20201;-79
2021/01/10 06:04:32;;;;;;;31.35;17.25;;;6.80;99.90;;;;;;4996157;28;20193;-79
2021/01/10 06:06:58;;;;;;;24.20;15.50;;;6.80;99.90;;;;;;4995981;28;20251;-79
2021/01/10 06:09:25;;;;;;;28.77;16.15;;;6.80;99.90;;;;;;4995971;28;20684;-79
2021/01/10 06:11:51;;;;;;;33.30;16.95;;;6.70;99.90;;;;;;4995749;28;20661;-80
2021/01/10 06:14:23;;;;;;;24.25;15.65;;;6.60;99.90;;;;;;4995626;28;20224;-80
2021/01/10 06:16:55;;;;;;;29.08;17.83;;;6.60;99.90;;;;;;4995853;28;20201;-80
2021/01/10 06:19:27;;;;;;;31.25;19.17;;;6.60;99.90;;;;;;4995651;28;20196;-79
2021/01/10 06:21:56;;;;;;;28.42;16.67;;;6.60;99.90;;;;;;4995835;28;20638;-80
2021/01/10 06:24:24;;;;;;;32.28;17.75;;;6.70;99.90;;;;;;4995659;28;20201;-88
2021/01/10 06:27:02;;;;;;;32.65;18.85;;;6.70;99.90;;;;;;4995468;28;20212;-79
2021/01/10 06:29:37;;;;;;;36.33;19.02;;;6.80;99.90;;;;;;4995482;28;20205;-80
2021/01/10 06:32:09;;;;;;;32.78;17.65;;;6.80;99.90;;;;;;4995618;28;20205;-79
2021/01/10 06:34:38;;;;;;;36.35;18.92;;;6.80;99.90;;;;;;4995475;28;20205;-79
2021/01/10 06:37:07;;;;;;;34.42;19.77;;;6.80;99.90;;;;;;4995348;28;20204;-80
2021/01/10 06:39:40;;;;;;;28.75;18.88;;;6.80;99.90;;;;;;4995271;28;20197;-80
2021/01/10 06:42:14;;;;;;;32.28;18.92;;;6.70;99.90;;;;;;4995290;28;20212;-79
2021/01/10 06:44:46;;;;;;;37.03;18.42;;;6.70;99.90;;;;;;4994945;28;20673;-86
2021/01/10 06:47:18;;;;;;;33.92;18.60;;;6.70;99.90;;;;;;4995293;28;20596;-88
2021/01/10 06:49:44;;;;;;;36.72;19.63;;;6.70;99.90;;;;;;4995207;28;20205;-79
2021/01/10 06:52:13;;;;;;;29.15;17.65;;;6.70;99.90;;;;;;4995153;28;20193;-79
2021/01/10 06:54:44;;;;;;;34.55;18.58;;;6.60;99.90;;;;;;4995238;28;20255;-79
2021/01/10 06:57:11;;;;;;;31.15;17.30;;;6.60;99.90;;;;;;4995097;28;20197;-79
2021/01/10 07:00:01;;;;;;;35.35;19.13;;;6.60;99.90;;;;;;4995060;28;20204;-79
2021/01/10 07:02:27;;;;;;;33.10;20.10;;;6.60;99.90;;;;;;4994535;28;20674;-79
2021/01/10 07:04:58;;;;;;;35.35;19.05;;;6.60;99.90;;;;;;4995179;28;20204;-80
2021/01/10 07:07:42;;;;;;;32.97;18.67;;;6.50;99.90;;;;;;4994715;28;20224;-80
2021/01/10 07:10:13;;;;;;;36.17;18.52;;;6.40;99.90;;;;;;4994996;28;20204;-80
2021/01/10 07:12:40;;;;;;;31.58;17.77;;;6.30;99.90;;;;;;4994779;28;20288;-80
2021/01/10 07:15:29;;;;;;;30.17;18.00;;;6.30;99.90;;;;;;4994509;28;20220;-80
2021/01/10 07:18:06;;;;;;;33.47;19.42;;;6.30;99.90;;;;;;4994678;28;20197;-79
2021/01/10 07:20:39;;;;;;;38.35;18.23;;;6.30;99.90;;;;;;4994568;28;20220;-79
2021/01/10 07:23:32;;;;;;;41.53;19.75;;;6.30;99.90;;;;;;4994532;28;20724;-81
2021/01/10 07:26:01;;;;;;;38.47;20.27;;;6.30;99.90;;;;;;4994624;28;20536;-80
2021/01/10 07:28:36;;;;;;;34.75;19.02;;;6.30;99.90;;;;;;4994149;28;20228;-80
2021/01/10 07:31:21;;;;;;;34.10;18.95;;;6.20;99.90;;;;;;4994500;28;20727;-80
2021/01/10 07:34:08;;;;;;;36.25;18.83;;;6.30;99.90;;;;;;4991737;28;20590;-79
2021/01/10 07:36:51;;;;;;;31.25;18.02;;;6.30;99.90;;;;;;4994118;28;20201;-80
2021/01/10 07:39:23;;;;;;;42.72;19.67;;;6.30;99.90;;;;;;4994323;28;20211;-80
2021/01/10 07:41:50;;;;;;;36.65;19.95;;;6.30;99.90;;;;;;4994267;28;20200;-80
2021/01/10 07:44:18;;;;;;;32.10;19.52;;;6.30;99.90;;;;;;4994224;28;20726;-79
2021/01/10 07:47:02;;;;;;;32.35;18.38;;;6.30;99.90;;;;;;4994147;28;20731;-79
2021/01/10 07:49:49;;;;;;;47.55;26.60;;;6.40;99.90;;;;;;4994398;28;20292;-80
2021/01/10 07:52:16;;;;;;;43.00;19.58;;;6.50;99.90;;;;;;4994253;28;20201;-80
2021/01/10 07:54:52;;;;;;;38.55;20.45;;;6.40;99.90;;;;;;4994255;28;20197;-79
2021/01/10 07:57:23;;;;;;;35.58;18.48;;;6.30;99.90;;;;;;4994103;28;20193;-80
2021/01/10 08:00:09;;;;;;;34.22;18.80;;;6.30;99.90;;;;;;4994263;28;20193;-80
2021/01/10 08:02:45;;;;;;;36.40;20.60;;;6.40;99.90;;;;;;4993928;28;20610;-80
2021/01/10 08:05:15;;;;;;;33.85;18.67;;;6.50;99.90;;;;;;4994009;28;20656;-80
2021/01/10 08:07:46;;;;;;;33.03;18.65;;;6.50;99.90;;;;;;4993247;28;20225;-80
2021/01/10 08:10:14;;;;;;;26.48;15.32;;;6.50;99.90;;;;;;4994022;28;20205;-80
2021/01/10 08:12:40;;;;;;;27.73;16.38;;;6.50;99.90;;;;;;4992978;28;20193;-80
2021/01/10 08:15:08;;;;;;;31.50;18.48;;;6.50;99.90;;;;;;4993646;28;20220;-80
2021/01/10 08:17:36;;;;;;;26.77;15.95;;;6.60;99.90;;;;;;4993965;28;20201;-80
2021/01/10 08:20:04;;;;;;;25.58;15.88;;;6.50;99.90;;;;;;4993816;28;20528;-79
2021/01/10 08:22:32;;;;;;;32.45;15.13;;;6.50;99.90;;;;;;4993996;28;20201;-80
2021/01/10 08:24:58;;;;;;;21.88;16.30;;;6.60;99.90;;;;;;4993773;28;20193;-80
2021/01/10 08:27:25;;;;;;;28.38;15.48;;;6.60;99.90;;;;;;4993558;28;20287;-80
2021/01/10 08:29:52;;;;;;;30.40;17.90;;;6.60;99.90;;;;;;4993771;28;20201;-80
2021/01/10 08:32:20;;;;;;;30.33;15.30;;;6.60;99.90;;;;;;4993559;28;20212;-79
2021/01/10 08:34:46;;;;;;;29.00;17.23;;;6.60;99.90;;;;;;4993674;28;20204;-79
2021/01/10 08:37:15;;;;;;;30.10;18.45;;;6.60;99.90;;;;;;4993474;28;20190;-79
2021/01/10 08:39:42;;;;;;;29.10;15.88;;;6.60;99.90;;;;;;4979051;28;20190;-90
2021/01/10 08:42:08;;;;;;;27.13;16.50;;;6.60;99.90;;;;;;4974311;28;20201;-80
2021/01/10 08:44:35;;;;;;;27.25;16.15;;;6.60;99.90;;;;;;4974014;28;20221;-80
2021/01/10 08:47:07;;;;;;;32.40;17.10;;;6.70;99.90;;;;;;4974029;28;20284;-87
2021/01/10 08:49:34;;;;;;;25.63;16.35;;;6.70;99.90;;;;;;4974451;28;20573;-89
2021/01/10 08:52:04;;;;;;;30.80;16.63;;;6.70;99.90;;;;;;4974289;28;20194;-89
2021/01/10 08:54:30;;;;;;;30.90;18.10;;;6.70;99.90;;;;;;4974298;28;20208;-79
2021/01/10 08:56:57;;;;;;;33.22;17.83;;;6.80;99.90;;;;;;4974001;28;20197;-88
2021/01/10 08:59:35;;;;;;;28.63;15.85;;;6.70;99.90;;;;;;4974191;28;20210;-80
2021/01/10 09:02:07;;;;;;;25.13;16.52;;;6.70;99.90;;;;;;4974273;28;20264;-89
2021/01/10 09:04:39;;;;;;;26.42;17.42;;;6.80;99.90;;;;;;4974246;28;20197;-80
2021/01/10 09:07:13;;;;;;;32.90;16.67;;;6.80;99.90;;;;;;4974075;28;20233;-80
2021/01/10 09:09:45;;;;;;;27.17;15.63;;;6.80;99.90;;;;;;4974174;28;20206;-80
2021/01/10 09:12:29;;;;;;;33.22;16.40;;;6.80;99.90;;;;;;4973965;28;20204;-80
2021/01/10 09:14:59;;;;;;;33.45;15.25;;;6.80;99.90;;;;;;4973734;28;20700;-82
2021/01/10 09:17:29;;;;;;;37.65;18.27;;;6.80;99.90;;;;;;4973848;28;20205;-80
2021/01/10 09:20:03;;;;;;;27.73;16.67;;;6.80;99.90;;;;;;4973883;28;20269;-80
2021/01/10 09:22:30;;;;;;;22.67;16.13;;;6.80;99.90;;;;;;4973756;28;20205;-80
2021/01/10 09:24:57;;;;;;;31.58;16.13;;;6.90;99.90;;;;;;4975926;28;20210;-82
2021/01/10 09:27:23;;;;;;;23.70;14.52;;;6.90;99.90;;;;;;4977135;28;20560;-80
2021/01/10 09:29:50;;;;;;;29.83;16.00;;;6.90;99.90;;;;;;4977279;28;20197;-80
2021/01/10 09:32:23;;;;;;;28.60;17.25;;;6.80;99.90;;;;;;4977159;28;20198;-80
2021/01/10 09:34:57;;;;;;;30.88;16.33;;;6.80;99.90;;;;;;4977123;28;20260;-82
2021/01/10 09:37:28;;;;;;;27.48;16.48;;;6.90;99.90;;;;;;4977141;28;20208;-80
2021/01/10 09:40:05;;;;;;;23.83;16.17;;;6.90;99.90;;;;;;4977254;28;20248;-80
2021/01/10 09:42:45;;;;;;;29.02;16.42;;;6.90;99.90;;;;;;4977167;28;20567;-81
2021/01/10 09:45:13;;;;;;;33.10;17.10;;;7.00;99.90;;;;;;4980537;28;20233;-80
2021/01/10 09:47:40;;;;;;;32.83;17.17;;;7.10;99.90;;;;;;4976762;28;20226;-80
2021/01/10 09:50:13;;;;;;;32.38;16.42;;;7.10;99.90;;;;;;4991575;28;20185;-88
2021/01/10 09:52:49;;;;;;;30.42;15.60;;;7.10;99.90;;;;;;4987687;28;20203;-80
2021/01/10 09:55:16;;;;;;;28.88;16.35;;;7.20;99.90;;;;;;4980538;28;20200;-86
2021/01/10 09:57:43;;;;;;;25.30;16.52;;;7.20;99.90;;;;;;4985647;28;20193;-80
2021/01/10 10:00:15;;;;;;;25.98;15.65;;;7.10;99.90;;;;;;4983296;28;20192;-79
2021/01/10 10:02:42;;;;;;;27.92;15.32;;;7.20;99.90;;;;;;4983124;28;20196;-80
2021/01/10 10:05:11;;;;;;;28.65;16.95;;;7.20;99.90;;;;;;4985645;28;20189;-79
2021/01/10 10:07:40;;;;;;;31.30;16.98;;;7.20;99.90;;;;;;4984217;28;20217;-83
2021/01/10 10:10:22;;;;;;;28.55;15.73;;;7.30;99.90;;;;;;4983620;28;20256;-77
2021/01/10 10:12:53;;;;;;;26.25;15.98;;;7.30;99.90;;;;;;4980384;28;20201;-77
2021/01/10 10:15:19;;;;;;;20.08;14.60;;;7.20;99.90;;;;;;4984677;28;20213;-79
2021/01/10 10:17:46;;;;;;;25.40;13.65;;;7.20;99.90;;;;;;4995712;28;20205;-79
2021/01/10 10:20:13;;;;;;;25.60;14.95;;;7.20;99.90;;;;;;4995793;28;20259;-79
2021/01/10 10:22:40;;;;;;;28.35;14.85;;;7.20;99.90;;;;;;4995627;28;20208;-80
2021/01/10 10:25:09;;;;;;;21.92;14.23;;;7.30;99.90;;;;;;4995569;28;20212;-79
2021/01/10 10:27:53;;;;;;;21.98;13.27;;;7.30;99.90;;;;;;4993660;28;20229;-84
2021/01/10 10:30:20;;;;;;;20.70;13.75;;;7.30;99.90;;;;;;4981143;28;20188;-84
2021/01/10 10:32:46;;;;;;;19.60;13.30;;;7.40;99.90;;;;;;4976132;28;20260;-79
2021/01/10 10:35:13;;;;;;;23.55;13.90;;;7.70;99.90;;;;;;4975651;28;20537;-79
2021/01/10 10:37:39;;;;;;;22.20;14.13;;;8.10;99.90;;;;;;4975412;28;20209;-80
2021/01/10 10:40:07;;;;;;;22.70;14.32;;;8.50;99.90;;;;;;4975956;28;20213;-79
2021/01/10 10:42:33;;;;;;;25.30;14.55;;;8.80;99.90;;;;;;4975795;28;20650;-80
2021/01/10 10:44:59;;;;;;;21.35;13.52;;;9.00;99.90;;;;;;4975731;28;20229;-79
2021/01/10 10:47:26;;;;;;;23.48;12.38;;;9.20;99.90;;;;;;4975855;28;20201;-79
2021/01/10 10:49:52;;;;;;;24.48;12.68;;;9.00;99.90;;;;;;4975956;28;20228;-80
2021/01/10 10:52:19;;;;;;;27.70;13.68;;;8.70;99.90;;;;;;4975868;28;20288;-79
2021/01/10 10:54:45;;;;;;;26.77;15.00;;;8.60;99.90;;;;;;4978308;28;20186;-79
2021/01/10 10:57:12;;;;;;;21.15;12.10;;;8.60;99.90;;;;;;4993041;28;20617;-79
2021/01/10 10:59:39;;;;;;;26.08;13.52;;;8.40;99.90;;;;;;4980370;28;20519;-79
2021/01/10 11:02:05;;;;;;;23.35;14.70;;;8.30;99.90;;;;;;4985088;28;20189;-79
2021/01/10 11:04:32;;;;;;;20.67;13.18;;;8.30;99.90;;;;;;4981891;28;20193;-79
2021/01/10 11:06:59;;;;;;;20.15;11.30;;;8.30;99.90;;;;;;4988588;28;20216;-80
2021/01/10 11:09:26;;;;;;;19.90;12.20;;;8.30;99.90;;;;;;4981212;28;20272;-79
2021/01/10 11:11:52;;;;;;;20.42;11.65;;;8.10;99.90;;;;;;4979734;28;20188;-79
2021/01/10 11:14:19;;;;;;;17.00;10.25;;;8.10;99.90;;;;;;4994442;28;20217;-81
2021/01/10 11:16:48;;;;;;;16.70;10.32;;;8.10;99.90;;;;;;4986194;28;20649;-79
2021/01/10 11:19:15;;;;;;;16.85;9.15;;;8.10;99.90;;;;;;4994342;28;20205;-79
2021/01/10 11:21:43;;;;;;;15.80;10.32;;;8.00;99.90;;;;;;4989155;28;20649;-80
2021/01/10 11:24:10;;;;;;;17.10;10.77;;;8.10;99.90;;;;;;4994656;28;20197;-80
2021/01/10 11:26:38;;;;;;;17.92;11.27;;;8.30;99.90;;;;;;4994524;28;20201;-85
2021/01/10 11:29:05;;;;;;;17.90;10.32;;;8.30;99.90;;;;;;4994413;28;20229;-79
2021/01/10 11:31:33;;;;;;;17.67;10.60;;;8.40;99.90;;;;;;4987816;28;20198;-82
2021/01/10 11:34:00;;;;;;;18.08;10.05;;;8.30;99.90;;;;;;4994240;28;20205;-80
2021/01/10 11:36:26;;;;;;;16.52;9.80;;;8.40;99.90;;;;;;4994277;28;20641;-79
2021/01/10 11:38:54;;;;;;;13.93;9.55;;;8.20;99.90;;;;;;4983397;28;20201;-83
2021/01/10 11:41:22;;;;;;;14.00;8.48;;;8.20;99.90;;;;;;4984655;28;20669;-80
2021/01/10 11:43:50;;;;;;;20.15;7.75;;;8.20;99.90;;;;;;4974704;28;20218;-80
2021/01/10 11:46:16;;;;;;;14.48;8.35;;;8.20;99.90;;;;;;4974671;28;20252;-79
2021/01/10 11:48:43;;;;;;;16.15;9.25;;;8.30;99.90;;;;;;4974680;28;20236;-81
2021/01/10 11:51:11;;;;;;;13.98;8.15;;;8.30;99.90;;;;;;4974800;28;20194;-79
2021/01/10 11:53:38;;;;;;;12.90;8.18;;;8.30;99.90;;;;;;4974689;28;20198;-80
2021/01/10 11:56:05;;;;;;;23.35;8.57;;;8.20;99.90;;;;;;4974664;28;20210;-80
2021/01/10 11:58:32;;;;;;;13.32;8.90;;;8.20;99.90;;;;;;4975417;28;20215;-79
2021/01/10 12:00:59;;;;;;;15.48;9.13;;;8.30;99.90;;;;;;4977118;28;20201;-79
2021/01/10 12:03:26;;;;;;;17.98;9.10;;;8.20;99.90;;;;;;4982020;28;20197;-79
2021/01/10 12:05:53;;;;;;;13.30;9.15;;;8.10;99.90;;;;;;4986242;28;20190;-80
2021/01/10 12:08:22;;;;;;;13.60;9.05;;;8.00;99.90;;;;;;4993682;28;20224;-79
2021/01/10 12:10:48;;;;;;;17.15;10.02;;;8.10;99.90;;;;;;4993868;28;20205;-79
2021/01/10 12:13:15;;;;;;;16.67;10.75;;;8.10;99.90;;;;;;4993802;28;20221;-79
2021/01/10 12:15:42;;;;;;;14.73;9.55;;;8.00;99.90;;;;;;4993654;28;20204;-78
2021/01/10 12:18:09;;;;;;;14.20;8.63;;;8.00;99.90;;;;;;4993730;28;20204;-79
2021/01/10 12:20:36;;;;;;;13.52;8.70;;;8.00;99.90;;;;;;4992578;28;20560;-79
2021/01/10 12:23:03;;;;;;;18.75;10.75;;;8.00;99.90;;;;;;4993271;28;20205;-79
2021/01/10 12:25:30;;;;;;;16.55;10.65;;;8.10;99.90;;;;;;4993720;28;20284;-79
2021/01/10 12:27:57;;;;;;;16.90;10.52;;;8.20;99.90;;;;;;4993490;28;20223;-79
2021/01/10 12:30:24;;;;;;;17.10;10.27;;;8.20;99.90;;;;;;4993763;28;20678;-85
2021/01/10 12:32:52;;;;;;;23.02;10.70;;;8.10;99.90;;;;;;4994080;28;20201;-85
2021/01/10 12:35:20;;;;;;;17.55;10.45;;;8.10;99.90;;;;;;4993969;28;20205;-84
2021/01/10 12:37:47;;;;;;;17.98;11.82;;;8.10;99.90;;;;;;4993747;28;20201;-84
2021/01/10 12:40:15;;;;;;;21.00;11.00;;;8.10;99.90;;;;;;4993764;28;20197;-85
2021/01/10 12:42:41;;;;;;;18.88;11.20;;;8.10;99.90;;;;;;4993811;28;20197;-84
2021/01/10 12:45:10;;;;;;;18.60;10.02;;;8.20;99.90;;;;;;4993486;28;20233;-85
2021/01/10 12:47:36;;;;;;;18.75;11.95;;;8.10;99.90;;;;;;4993676;28;20197;-84